sensor_id;sensor_type;location;lat;lon;timestamp;temperature;humidity
52381;DHT22;38310;52.796;6.942;2024-01-11T00:00:37;-5.90;99.90
52381;DHT22;38310;52.796;6.942;2024-01-11T00:03:03;-3.90;99.90
52381;DHT22;38310;52.796;6.942;2024-01-11T00:05:29;-5.80;99.90
52381;DHT22;38310;52.796;6.942;2024-01-11T00:07:55;-6.50;99.90
52381;DHT22;38310;52.796;6.942;2024-01-11T00:10:20;-5.90;99.90
52381;DHT22;38310;52.796;6.942;2024-01-11T00:12:47;-5.90;99.90
52381;DHT22;38310;52.796;6.942;2024-01-11T00:15:13;-6.30;99.90
52381;DHT22;38310;52.796;6.942;2024-01-11T00:17:38;-6.00;99.90
52381;DHT22;38310;52.796;6.942;2024-01-11T00:20:05;-6.10;99.90
52381;DHT22;38310;52.796;6.942;2024-01-11T00:22:31;-5.90;99.90
52381;DHT22;38310;52.796;6.942;2024-01-11T00:24:57;-6.00;99.90
52381;DHT22;38310;52.796;6.942;2024-01-11T00:27:23;-6.00;99.90
52381;DHT22;38310;52.796;6.942;2024-01-11T00:29:49;-6.20;99.90
52381;DHT22;38310;52.796;6.942;2024-01-11T00:32:15;-5.80;99.90
52381;DHT22;38310;52.796;6.942;2024-01-11T00:34:40;-6.20;99.90
52381;DHT22;38310;52.796;6.942;2024-01-11T00:37:08;-3.60;99.90
52381;DHT22;38310;52.796;6.942;2024-01-11T00:39:33;-6.10;99.90
52381;DHT22;38310;52.796;6.942;2024-01-11T00:41:59;-5.80;99.90
52381;DHT22;38310;52.796;6.942;2024-01-11T00:44:25;-6.00;99.90
52381;DHT22;38310;52.796;6.942;2024-01-11T00:46:50;-6.20;99.90
52381;DHT22;38310;52.796;6.942;2024-01-11T00:49:17;-4.30;99.90
52381;DHT22;38310;52.796;6.942;2024-01-11T00:51:43;-5.90;99.90
52381;DHT22;38310;52.796;6.942;2024-01-11T00:54:09;-6.00;99.90
52381;DHT22;38310;52.796;6.942;2024-01-11T00:56:35;-5.80;99.90
52381;DHT22;38310;52.796;6.942;2024-01-11T00:59:01;-5.80;99.90
52381;DHT22;38310;52.796;6.942;2024-01-11T01:01:30;-3.80;99.90
52381;DHT22;38310;52.796;6.942;2024-01-11T01:03:57;-5.90;99.90
52381;DHT22;38310;52.796;6.942;2024-01-11T01:06:23;-5.90;99.90
52381;DHT22;38310;52.796;6.942;2024-01-11T01:08:49;-5.40;99.90
52381;DHT22;38310;52.796;6.942;2024-01-11T01:11:15;-6.10;99.90
52381;DHT22;38310;52.796;6.942;2024-01-11T01:13:42;-4.20;99.90
52381;DHT22;38310;52.796;6.942;2024-01-11T01:16:08;-5.10;99.90
52381;DHT22;38310;52.796;6.942;2024-01-11T01:18:33;-6.10;99.90
52381;DHT22;38310;52.796;6.942;2024-01-11T01:20:59;-6.10;99.90
52381;DHT22;38310;52.796;6.942;2024-01-11T01:23:25;-6.10;99.90
52381;DHT22;38310;52.796;6.942;2024-01-11T01:25:51;-4.90;99.90
52381;DHT22;38310;52.796;6.942;2024-01-11T01:28:17;-5.80;99.90
52381;DHT22;38310;52.796;6.942;2024-01-11T01:30:42;-6.00;99.90
52381;DHT22;38310;52.796;6.942;2024-01-11T01:33:09;-3.90;99.90
52381;DHT22;38310;52.796;6.942;2024-01-11T01:35:35;-6.30;99.90
52381;DHT22;38310;52.796;6.942;2024-01-11T01:38:01;-3.40;99.90
52381;DHT22;38310;52.796;6.942;2024-01-11T01:40:30;-6.40;99.90
52381;DHT22;38310;52.796;6.942;2024-01-11T01:42:59;-5.80;99.90
52381;DHT22;38310;52.796;6.942;2024-01-11T01:45:26;-6.40;99.90
52381;DHT22;38310;52.796;6.942;2024-01-11T01:47:53;-5.70;99.90
52381;DHT22;38310;52.796;6.942;2024-01-11T01:50:20;-6.30;99.90
52381;DHT22;38310;52.796;6.942;2024-01-11T01:52:46;-6.30;99.90
52381;DHT22;38310;52.796;6.942;2024-01-11T01:55:15;-6.20;99.90
52381;DHT22;38310;52.796;6.942;2024-01-11T01:57:42;-4.00;99.90
52381;DHT22;38310;52.796;6.942;2024-01-11T02:00:12;-6.40;99.90
52381;DHT22;38310;52.796;6.942;2024-01-11T02:02:40;-6.30;99.90
52381;DHT22;38310;52.796;6.942;2024-01-11T02:05:07;-6.40;99.90
52381;DHT22;38310;52.796;6.942;2024-01-11T02:07:33;-6.40;99.90
52381;DHT22;38310;52.796;6.942;2024-01-11T02:09:59;-6.50;99.90
52381;DHT22;38310;52.796;6.942;2024-01-11T02:12:26;-6.70;99.90
52381;DHT22;38310;52.796;6.942;2024-01-11T02:14:55;-4.00;99.90
52381;DHT22;38310;52.796;6.942;2024-01-11T02:17:21;-6.70;99.90
52381;DHT22;38310;52.796;6.942;2024-01-11T02:19:47;-6.40;99.90
52381;DHT22;38310;52.796;6.942;2024-01-11T02:22:22;-6.60;99.90
52381;DHT22;38310;52.796;6.942;2024-01-11T02:24:48;-7.00;99.90
52381;DHT22;38310;52.796;6.942;2024-01-11T02:27:14;-7.60;99.90
52381;DHT22;38310;52.796;6.942;2024-01-11T02:29:40;-6.80;99.90
52381;DHT22;38310;52.796;6.942;2024-01-11T02:32:05;-6.70;99.90
52381;DHT22;38310;52.796;6.942;2024-01-11T02:34:32;-7.00;99.90
52381;DHT22;38310;52.796;6.942;2024-01-11T02:36:59;-6.70;99.90
52381;DHT22;38310;52.796;6.942;2024-01-11T02:39:25;-6.80;99.90
52381;DHT22;38310;52.796;6.942;2024-01-11T02:41:56;-6.90;99.90
52381;DHT22;38310;52.796;6.942;2024-01-11T02:44:23;-6.90;99.90
52381;DHT22;38310;52.796;6.942;2024-01-11T02:46:55;-7.00;99.90
52381;DHT22;38310;52.796;6.942;2024-01-11T02:49:20;-7.40;99.90
52381;DHT22;38310;52.796;6.942;2024-01-11T02:51:46;-5.00;99.90
52381;DHT22;38310;52.796;6.942;2024-01-11T02:54:12;-6.90;99.90
52381;DHT22;38310;52.796;6.942;2024-01-11T02:56:38;-4.60;99.90
52381;DHT22;38310;52.796;6.942;2024-01-11T02:59:04;-7.00;99.90
52381;DHT22;38310;52.796;6.942;2024-01-11T03:01:29;-6.00;99.90
52381;DHT22;38310;52.796;6.942;2024-01-11T03:04:00;-6.90;99.90
52381;DHT22;38310;52.796;6.942;2024-01-11T03:06:26;-5.00;99.90
52381;DHT22;38310;52.796;6.942;2024-01-11T03:08:52;-6.60;99.90
52381;DHT22;38310;52.796;6.942;2024-01-11T03:11:18;-7.00;99.90
52381;DHT22;38310;52.796;6.942;2024-01-11T03:13:44;-7.10;99.90
52381;DHT22;38310;52.796;6.942;2024-01-11T03:16:15;-5.80;99.90
52381;DHT22;38310;52.796;6.942;2024-01-11T03:18:41;-6.70;99.90
52381;DHT22;38310;52.796;6.942;2024-01-11T03:21:06;-4.50;99.90
52381;DHT22;38310;52.796;6.942;2024-01-11T03:23:32;-8.20;99.90
52381;DHT22;38310;52.796;6.942;2024-01-11T03:25:58;-6.80;99.90
52381;DHT22;38310;52.796;6.942;2024-01-11T03:28:24;-6.90;99.90
52381;DHT22;38310;52.796;6.942;2024-01-11T03:30:49;-6.90;99.90
52381;DHT22;38310;52.796;6.942;2024-01-11T03:33:15;-6.90;99.90
52381;DHT22;38310;52.796;6.942;2024-01-11T03:35:41;-6.50;99.90
52381;DHT22;38310;52.796;6.942;2024-01-11T03:38:09;-5.00;99.90
52381;DHT22;38310;52.796;6.942;2024-01-11T03:40:35;-6.80;99.90
52381;DHT22;38310;52.796;6.942;2024-01-11T03:43:01;-6.10;99.90
52381;DHT22;38310;52.796;6.942;2024-01-11T03:45:26;-6.50;99.90
52381;DHT22;38310;52.796;6.942;2024-01-11T03:47:54;-7.40;99.90
52381;DHT22;38310;52.796;6.942;2024-01-11T03:50:20;-5.40;99.90
52381;DHT22;38310;52.796;6.942;2024-01-11T03:55:11;-6.70;99.90
52381;DHT22;38310;52.796;6.942;2024-01-11T03:57:37;-4.20;99.90
52381;DHT22;38310;52.796;6.942;2024-01-11T04:00:04;-6.90;99.90
52381;DHT22;38310;52.796;6.942;2024-01-11T04:02:31;-6.60;99.90
52381;DHT22;38310;52.796;6.942;2024-01-11T04:04:57;-6.90;99.90
52381;DHT22;38310;52.796;6.942;2024-01-11T04:07:23;-4.50;99.90
52381;DHT22;38310;52.796;6.942;2024-01-11T04:09:49;-4.40;99.90
52381;DHT22;38310;52.796;6.942;2024-01-11T04:12:15;-6.90;99.90
52381;DHT22;38310;52.796;6.942;2024-01-11T04:14:41;-6.90;99.90
52381;DHT22;38310;52.796;6.942;2024-01-11T04:17:07;-6.80;99.90
52381;DHT22;38310;52.796;6.942;2024-01-11T04:19:37;-4.70;99.90
52381;DHT22;38310;52.796;6.942;2024-01-11T04:22:04;-7.00;99.90
52381;DHT22;38310;52.796;6.942;2024-01-11T04:24:30;-7.00;99.90
52381;DHT22;38310;52.796;6.942;2024-01-11T04:26:56;-6.70;99.90
52381;DHT22;38310;52.796;6.942;2024-01-11T04:29:21;-6.90;99.90
52381;DHT22;38310;52.796;6.942;2024-01-11T04:31:47;-7.10;99.90
52381;DHT22;38310;52.796;6.942;2024-01-11T04:34:14;-7.30;99.90
52381;DHT22;38310;52.796;6.942;2024-01-11T04:36:40;-6.10;99.90
52381;DHT22;38310;52.796;6.942;2024-01-11T04:39:06;-5.20;99.90
52381;DHT22;38310;52.796;6.942;2024-01-11T04:41:35;-7.10;99.90
52381;DHT22;38310;52.796;6.942;2024-01-11T04:44:04;-4.40;99.90
52381;DHT22;38310;52.796;6.942;2024-01-11T04:46:31;-6.60;99.90
52381;DHT22;38310;52.796;6.942;2024-01-11T04:48:57;-7.10;99.90
52381;DHT22;38310;52.796;6.942;2024-01-11T04:51:22;-6.50;99.90
52381;DHT22;38310;52.796;6.942;2024-01-11T04:53:48;-7.30;99.90
52381;DHT22;38310;52.796;6.942;2024-01-11T04:56:15;-7.70;99.90
52381;DHT22;38310;52.796;6.942;2024-01-11T04:58:42;-7.20;99.90
52381;DHT22;38310;52.796;6.942;2024-01-11T05:01:27;-6.10;99.90
52381;DHT22;38310;52.796;6.942;2024-01-11T05:03:52;-7.00;99.90
52381;DHT22;38310;52.796;6.942;2024-01-11T05:06:21;-7.20;99.90
52381;DHT22;38310;52.796;6.942;2024-01-11T05:08:50;-7.20;99.90
52381;DHT22;38310;52.796;6.942;2024-01-11T05:11:22;-7.00;99.90
52381;DHT22;38310;52.796;6.942;2024-01-11T05:13:50;-6.90;99.90
52381;DHT22;38310;52.796;6.942;2024-01-11T05:16:26;-7.10;99.90
52381;DHT22;38310;52.796;6.942;2024-01-11T05:18:54;-7.20;99.90
52381;DHT22;38310;52.796;6.942;2024-01-11T05:21:20;-6.50;99.90
52381;DHT22;38310;52.796;6.942;2024-01-11T05:23:46;-6.80;99.90
52381;DHT22;38310;52.796;6.942;2024-01-11T05:26:13;-7.20;99.90
52381;DHT22;38310;52.796;6.942;2024-01-11T05:28:39;-6.00;99.90
52381;DHT22;38310;52.796;6.942;2024-01-11T05:31:13;-6.70;99.90
52381;DHT22;38310;52.796;6.942;2024-01-11T05:33:40;-6.80;99.90
52381;DHT22;38310;52.796;6.942;2024-01-11T05:36:08;-6.70;99.90
52381;DHT22;38310;52.796;6.942;2024-01-11T05:38:35;-5.30;99.90
52381;DHT22;38310;52.796;6.942;2024-01-11T05:41:01;-6.70;99.90
52381;DHT22;38310;52.796;6.942;2024-01-11T05:43:27;-6.90;99.90
52381;DHT22;38310;52.796;6.942;2024-01-11T05:45:54;-6.50;99.90
52381;DHT22;38310;52.796;6.942;2024-01-11T05:48:21;-8.50;99.90
52381;DHT22;38310;52.796;6.942;2024-01-11T05:50:47;-6.70;99.90
52381;DHT22;38310;52.796;6.942;2024-01-11T05:53:13;-6.60;99.90
52381;DHT22;38310;52.796;6.942;2024-01-11T05:55:39;-6.50;99.90
52381;DHT22;38310;52.796;6.942;2024-01-11T05:58:05;-6.20;99.90
52381;DHT22;38310;52.796;6.942;2024-01-11T06:00:31;-6.50;99.90
52381;DHT22;38310;52.796;6.942;2024-01-11T06:03:07;-6.40;99.90
52381;DHT22;38310;52.796;6.942;2024-01-11T06:05:33;-6.10;99.90
52381;DHT22;38310;52.796;6.942;2024-01-11T06:07:59;-6.30;99.90
52381;DHT22;38310;52.796;6.942;2024-01-11T06:10:25;-5.40;99.90
52381;DHT22;38310;52.796;6.942;2024-01-11T06:12:50;-5.50;99.90
52381;DHT22;38310;52.796;6.942;2024-01-11T06:15:16;-4.40;99.90
52381;DHT22;38310;52.796;6.942;2024-01-11T06:17:42;-6.00;99.90
52381;DHT22;38310;52.796;6.942;2024-01-11T06:20:08;-5.80;99.90
52381;DHT22;38310;52.796;6.942;2024-01-11T06:22:35;-5.70;99.90
52381;DHT22;38310;52.796;6.942;2024-01-11T06:25:01;-5.80;99.90
52381;DHT22;38310;52.796;6.942;2024-01-11T06:27:27;-5.70;99.90
52381;DHT22;38310;52.796;6.942;2024-01-11T06:29:52;-3.30;99.90
52381;DHT22;38310;52.796;6.942;2024-01-11T06:32:18;-5.10;99.90
52381;DHT22;38310;52.796;6.942;2024-01-11T06:34:44;-5.50;99.90
52381;DHT22;38310;52.796;6.942;2024-01-11T06:37:12;-5.70;99.90
52381;DHT22;38310;52.796;6.942;2024-01-11T06:39:38;-5.40;99.90
52381;DHT22;38310;52.796;6.942;2024-01-11T06:42:04;-5.30;99.90
52381;DHT22;38310;52.796;6.942;2024-01-11T06:44:30;-5.30;99.90
52381;DHT22;38310;52.796;6.942;2024-01-11T06:46:56;-4.90;99.90
52381;DHT22;38310;52.796;6.942;2024-01-11T06:49:22;-5.00;99.90
52381;DHT22;38310;52.796;6.942;2024-01-11T06:51:48;-4.00;99.90
52381;DHT22;38310;52.796;6.942;2024-01-11T06:54:14;-2.70;99.90
52381;DHT22;38310;52.796;6.942;2024-01-11T06:56:39;-4.90;99.90
52381;DHT22;38310;52.796;6.942;2024-01-11T06:59:06;-3.80;99.90
52381;DHT22;38310;52.796;6.942;2024-01-11T07:01:33;-2.30;99.90
52381;DHT22;38310;52.796;6.942;2024-01-11T07:03:59;-3.80;99.90
52381;DHT22;38310;52.796;6.942;2024-01-11T07:06:25;-4.80;99.90
52381;DHT22;38310;52.796;6.942;2024-01-11T07:08:51;-4.70;99.90
52381;DHT22;38310;52.796;6.942;2024-01-11T07:11:17;-4.50;99.90
52381;DHT22;38310;52.796;6.942;2024-01-11T07:13:42;-3.20;99.90
52381;DHT22;38310;52.796;6.942;2024-01-11T07:16:09;-1.90;99.90
52381;DHT22;38310;52.796;6.942;2024-01-11T07:18:36;-2.40;99.90
52381;DHT22;38310;52.796;6.942;2024-01-11T07:21:02;-4.30;99.90
52381;DHT22;38310;52.796;6.942;2024-01-11T07:23:28;-4.30;99.90
52381;DHT22;38310;52.796;6.942;2024-01-11T07:25:53;-3.60;99.90
52381;DHT22;38310;52.796;6.942;2024-01-11T07:28:20;-6.00;99.90
52381;DHT22;38310;52.796;6.942;2024-01-11T07:30:51;-4.20;99.90
52381;DHT22;38310;52.796;6.942;2024-01-11T07:33:19;-1.70;99.90
52381;DHT22;38310;52.796;6.942;2024-01-11T07:35:45;-5.40;99.90
52381;DHT22;38310;52.796;6.942;2024-01-11T07:38:11;-3.30;99.90
52381;DHT22;38310;52.796;6.942;2024-01-11T07:40:37;-3.80;99.90
52381;DHT22;38310;52.796;6.942;2024-01-11T07:43:02;-2.60;99.90
52381;DHT22;38310;52.796;6.942;2024-01-11T07:45:29;-3.90;99.90
52381;DHT22;38310;52.796;6.942;2024-01-11T07:47:55;-3.90;99.90
52381;DHT22;38310;52.796;6.942;2024-01-11T07:50:22;-4.00;99.90
52381;DHT22;38310;52.796;6.942;2024-01-11T07:52:47;-5.80;99.90
52381;DHT22;38310;52.796;6.942;2024-01-11T07:55:16;-2.20;99.90
52381;DHT22;38310;52.796;6.942;2024-01-11T07:57:42;-3.70;99.90
52381;DHT22;38310;52.796;6.942;2024-01-11T08:00:08;-3.80;99.90
52381;DHT22;38310;52.796;6.942;2024-01-11T08:02:35;-3.70;99.90
52381;DHT22;38310;52.796;6.942;2024-01-11T08:05:01;-1.40;99.90
52381;DHT22;38310;52.796;6.942;2024-01-11T08:07:28;-3.60;99.90
52381;DHT22;38310;52.796;6.942;2024-01-11T08:09:54;-3.70;99.90
52381;DHT22;38310;52.796;6.942;2024-01-11T08:12:20;-3.70;99.90
52381;DHT22;38310;52.796;6.942;2024-01-11T08:14:46;-1.90;99.90
52381;DHT22;38310;52.796;6.942;2024-01-11T08:17:13;-5.10;99.90
52381;DHT22;38310;52.796;6.942;2024-01-11T08:19:39;-2.20;99.90
52381;DHT22;38310;52.796;6.942;2024-01-11T08:22:06;-3.20;99.90
52381;DHT22;38310;52.796;6.942;2024-01-11T08:24:32;-1.50;99.90
52381;DHT22;38310;52.796;6.942;2024-01-11T08:26:58;-1.90;99.90
52381;DHT22;38310;52.796;6.942;2024-01-11T08:29:24;-3.10;99.90
52381;DHT22;38310;52.796;6.942;2024-01-11T08:31:50;-0.90;99.90
52381;DHT22;38310;52.796;6.942;2024-01-11T08:34:16;-1.60;99.90
52381;DHT22;38310;52.796;6.942;2024-01-11T08:36:42;-3.20;99.90
52381;DHT22;38310;52.796;6.942;2024-01-11T08:39:08;-3.30;99.90
52381;DHT22;38310;52.796;6.942;2024-01-11T08:41:34;-0.80;99.90
52381;DHT22;38310;52.796;6.942;2024-01-11T08:44:04;-3.10;99.90
52381;DHT22;38310;52.796;6.942;2024-01-11T08:46:33;-0.60;99.90
52381;DHT22;38310;52.796;6.942;2024-01-11T08:49:00;-1.50;99.90
52381;DHT22;38310;52.796;6.942;2024-01-11T08:51:27;-3.20;99.90
52381;DHT22;38310;52.796;6.942;2024-01-11T08:53:52;-3.00;99.90
52381;DHT22;38310;52.796;6.942;2024-01-11T08:56:18;-3.00;99.90
52381;DHT22;38310;52.796;6.942;2024-01-11T08:58:44;-0.80;99.90
52381;DHT22;38310;52.796;6.942;2024-01-11T09:01:11;-2.90;99.90
52381;DHT22;38310;52.796;6.942;2024-01-11T09:03:36;-3.80;99.90
52381;DHT22;38310;52.796;6.942;2024-01-11T09:06:03;-2.80;99.90
52381;DHT22;38310;52.796;6.942;2024-01-11T09:08:29;-2.60;99.90
52381;DHT22;38310;52.796;6.942;2024-01-11T09:10:56;-1.60;99.90
52381;DHT22;38310;52.796;6.942;2024-01-11T09:13:23;-2.80;99.90
52381;DHT22;38310;52.796;6.942;2024-01-11T09:15:49;-2.50;99.90
52381;DHT22;38310;52.796;6.942;2024-01-11T09:19:09;-2.50;99.90
52381;DHT22;38310;52.796;6.942;2024-01-11T09:21:35;-2.40;99.90
52381;DHT22;38310;52.796;6.942;2024-01-11T09:24:00;-1.90;99.90
52381;DHT22;38310;52.796;6.942;2024-01-11T09:26:26;-2.30;99.90
52381;DHT22;38310;52.796;6.942;2024-01-11T09:28:52;-2.30;99.90
52381;DHT22;38310;52.796;6.942;2024-01-11T09:31:17;-2.20;99.90
52381;DHT22;38310;52.796;6.942;2024-01-11T09:33:43;-2.20;99.90
52381;DHT22;38310;52.796;6.942;2024-01-11T09:36:11;-0.70;99.90
52381;DHT22;38310;52.796;6.942;2024-01-11T09:38:37;-1.70;99.90
52381;DHT22;38310;52.796;6.942;2024-01-11T09:41:12;-2.00;99.90
52381;DHT22;38310;52.796;6.942;2024-01-11T09:43:41;-1.90;99.90
52381;DHT22;38310;52.796;6.942;2024-01-11T09:46:06;-1.90;99.90
52381;DHT22;38310;52.796;6.942;2024-01-11T09:48:34;-1.90;99.90
52381;DHT22;38310;52.796;6.942;2024-01-11T09:51:02;0.20;99.90
52381;DHT22;38310;52.796;6.942;2024-01-11T09:53:33;-1.80;99.90
52381;DHT22;38310;52.796;6.942;2024-01-11T09:56:00;0.30;99.90
52381;DHT22;38310;52.796;6.942;2024-01-11T09:58:26;-1.80;99.90
52381;DHT22;38310;52.796;6.942;2024-01-11T10:00:56;-1.70;99.90
52381;DHT22;38310;52.796;6.942;2024-01-11T10:03:25;-1.60;99.90
52381;DHT22;38310;52.796;6.942;2024-01-11T10:05:56;-1.60;99.90
52381;DHT22;38310;52.796;6.942;2024-01-11T10:08:23;-1.10;99.90
52381;DHT22;38310;52.796;6.942;2024-01-11T10:10:49;-1.30;99.90
52381;DHT22;38310;52.796;6.942;2024-01-11T10:13:15;-1.50;99.90
52381;DHT22;38310;52.796;6.942;2024-01-11T10:15:42;-1.00;99.90
52381;DHT22;38310;52.796;6.942;2024-01-11T10:18:08;-1.50;99.90
52381;DHT22;38310;52.796;6.942;2024-01-11T10:20:34;0.00;99.90
52381;DHT22;38310;52.796;6.942;2024-01-11T10:23:00;-1.40;99.90
52381;DHT22;38310;52.796;6.942;2024-01-11T10:25:26;0.40;99.90
52381;DHT22;38310;52.796;6.942;2024-01-11T10:27:52;0.40;99.90
52381;DHT22;38310;52.796;6.942;2024-01-11T10:30:18;-1.20;99.90
52381;DHT22;38310;52.796;6.942;2024-01-11T10:32:46;-1.20;99.90
52381;DHT22;38310;52.796;6.942;2024-01-11T10:35:13;-1.20;99.90
52381;DHT22;38310;52.796;6.942;2024-01-11T10:37:39;-1.10;99.90
52381;DHT22;38310;52.796;6.942;2024-01-11T10:40:08;0.20;99.90
52381;DHT22;38310;52.796;6.942;2024-01-11T10:42:51;-1.00;99.90
52381;DHT22;38310;52.796;6.942;2024-01-11T10:45:19;-0.90;99.90
52381;DHT22;38310;52.796;6.942;2024-01-11T10:50:12;-0.90;99.90
52381;DHT22;38310;52.796;6.942;2024-01-11T10:52:43;-0.80;99.90
52381;DHT22;38310;52.796;6.942;2024-01-11T10:55:14;-0.70;99.90
52381;DHT22;38310;52.796;6.942;2024-01-11T10:57:41;-0.70;99.90
52381;DHT22;38310;52.796;6.942;2024-01-11T11:00:07;-0.10;99.90
52381;DHT22;38310;52.796;6.942;2024-01-11T11:02:37;-0.60;99.90
52381;DHT22;38310;52.796;6.942;2024-01-11T11:05:04;1.20;99.90
52381;DHT22;38310;52.796;6.942;2024-01-11T11:07:34;-0.50;99.90
52381;DHT22;38310;52.796;6.942;2024-01-11T11:10:01;-0.60;99.90
52381;DHT22;38310;52.796;6.942;2024-01-11T11:12:31;-0.50;99.90
52381;DHT22;38310;52.796;6.942;2024-01-11T11:14:58;-0.50;99.90
52381;DHT22;38310;52.796;6.942;2024-01-11T11:17:25;-0.20;99.90
52381;DHT22;38310;52.796;6.942;2024-01-11T11:19:53;-0.40;99.90
52381;DHT22;38310;52.796;6.942;2024-01-11T11:22:19;1.50;99.90
52381;DHT22;38310;52.796;6.942;2024-01-11T11:24:45;0.20;99.90
52381;DHT22;38310;52.796;6.942;2024-01-11T11:27:14;-0.20;99.90
52381;DHT22;38310;52.796;6.942;2024-01-11T11:29:41;0.50;99.90
52381;DHT22;38310;52.796;6.942;2024-01-11T11:32:14;0.00;99.90
52381;DHT22;38310;52.796;6.942;2024-01-11T11:34:43;0.00;99.90
52381;DHT22;38310;52.796;6.942;2024-01-11T11:37:10;0.20;99.90
52381;DHT22;38310;52.796;6.942;2024-01-11T11:39:36;1.30;99.90
52381;DHT22;38310;52.796;6.942;2024-01-11T11:42:03;-0.10;99.90
52381;DHT22;38310;52.796;6.942;2024-01-11T11:44:30;0.00;99.90
52381;DHT22;38310;52.796;6.942;2024-01-11T11:47:17;0.40;99.90
52381;DHT22;38310;52.796;6.942;2024-01-11T11:50:17;0.10;99.90
52381;DHT22;38310;52.796;6.942;2024-01-11T11:52:54;1.60;99.90
52381;DHT22;38310;52.796;6.942;2024-01-11T11:55:22;0.20;99.90
52381;DHT22;38310;52.796;6.942;2024-01-11T11:57:49;-1.00;99.90
52381;DHT22;38310;52.796;6.942;2024-01-11T12:00:16;0.30;99.90
52381;DHT22;38310;52.796;6.942;2024-01-11T12:02:42;0.20;99.90
52381;DHT22;38310;52.796;6.942;2024-01-11T12:05:07;1.30;99.90
52381;DHT22;38310;52.796;6.942;2024-01-11T12:07:33;2.20;99.90
52381;DHT22;38310;52.796;6.942;2024-01-11T12:09:59;0.40;99.90
52381;DHT22;38310;52.796;6.942;2024-01-11T12:12:25;0.40;99.90
52381;DHT22;38310;52.796;6.942;2024-01-11T12:14:52;0.40;99.90
52381;DHT22;38310;52.796;6.942;2024-01-11T12:17:18;0.50;99.90
52381;DHT22;38310;52.796;6.942;2024-01-11T12:19:44;1.00;99.90
52381;DHT22;38310;52.796;6.942;2024-01-11T12:22:10;0.70;99.90
52381;DHT22;38310;52.796;6.942;2024-01-11T12:24:36;0.50;99.90
52381;DHT22;38310;52.796;6.942;2024-01-11T12:27:03;0.50;99.90
52381;DHT22;38310;52.796;6.942;2024-01-11T12:29:29;0.50;99.90
52381;DHT22;38310;52.796;6.942;2024-01-11T12:31:59;0.60;99.90
52381;DHT22;38310;52.796;6.942;2024-01-11T12:34:25;1.80;99.90
52381;DHT22;38310;52.796;6.942;2024-01-11T12:36:52;0.60;99.90
52381;DHT22;38310;52.796;6.942;2024-01-11T12:39:20;0.80;99.90
52381;DHT22;38310;52.796;6.942;2024-01-11T12:41:49;0.50;99.90
52381;DHT22;38310;52.796;6.942;2024-01-11T12:44:17;0.60;99.90
52381;DHT22;38310;52.796;6.942;2024-01-11T12:46:44;0.60;99.90
52381;DHT22;38310;52.796;6.942;2024-01-11T12:49:10;0.70;99.90
52381;DHT22;38310;52.796;6.942;2024-01-11T12:51:36;1.80;99.90
52381;DHT22;38310;52.796;6.942;2024-01-11T12:54:02;0.70;99.90
52381;DHT22;38310;52.796;6.942;2024-01-11T12:56:30;0.70;99.90
52381;DHT22;38310;52.796;6.942;2024-01-11T12:59:06;1.00;99.90
52381;DHT22;38310;52.796;6.942;2024-01-11T13:01:32;0.80;99.90
52381;DHT22;38310;52.796;6.942;2024-01-11T13:03:58;0.70;99.90
52381;DHT22;38310;52.796;6.942;2024-01-11T13:06:24;0.80;99.90
52381;DHT22;38310;52.796;6.942;2024-01-11T13:08:51;0.80;99.90
52381;DHT22;38310;52.796;6.942;2024-01-11T13:11:17;1.00;99.90
52381;DHT22;38310;52.796;6.942;2024-01-11T13:13:46;0.80;99.90
52381;DHT22;38310;52.796;6.942;2024-01-11T13:16:12;0.80;99.90
52381;DHT22;38310;52.796;6.942;2024-01-11T13:18:40;1.10;99.90
52381;DHT22;38310;52.796;6.942;2024-01-11T13:21:06;0.80;99.90
52381;DHT22;38310;52.796;6.942;2024-01-11T13:23:35;0.90;99.90
52381;DHT22;38310;52.796;6.942;2024-01-11T13:26:03;1.50;99.90
52381;DHT22;38310;52.796;6.942;2024-01-11T13:28:30;0.90;99.90
52381;DHT22;38310;52.796;6.942;2024-01-11T13:30:56;0.90;99.90
52381;DHT22;38310;52.796;6.942;2024-01-11T13:33:23;1.10;99.90
52381;DHT22;38310;52.796;6.942;2024-01-11T13:35:49;0.80;99.90
52381;DHT22;38310;52.796;6.942;2024-01-11T13:38:15;1.90;99.90
52381;DHT22;38310;52.796;6.942;2024-01-11T13:40:41;0.80;99.90
52381;DHT22;38310;52.796;6.942;2024-01-11T13:43:09;2.60;99.90
52381;DHT22;38310;52.796;6.942;2024-01-11T13:45:35;0.90;99.90
52381;DHT22;38310;52.796;6.942;2024-01-11T13:48:05;0.80;99.90
52381;DHT22;38310;52.796;6.942;2024-01-11T13:50:31;0.90;99.90
52381;DHT22;38310;52.796;6.942;2024-01-11T13:52:58;0.70;99.90
52381;DHT22;38310;52.796;6.942;2024-01-11T13:55:24;1.40;99.90
52381;DHT22;38310;52.796;6.942;2024-01-11T13:57:50;1.20;99.90
52381;DHT22;38310;52.796;6.942;2024-01-11T14:00:17;0.70;99.90
52381;DHT22;38310;52.796;6.942;2024-01-11T14:02:44;0.70;99.90
52381;DHT22;38310;52.796;6.942;2024-01-11T14:05:11;0.80;99.90
52381;DHT22;38310;52.796;6.942;2024-01-11T14:07:42;1.00;99.90
52381;DHT22;38310;52.796;6.942;2024-01-11T14:10:09;2.30;99.90
52381;DHT22;38310;52.796;6.942;2024-01-11T14:12:36;1.30;99.90
52381;DHT22;38310;52.796;6.942;2024-01-11T14:15:03;1.50;99.90
52381;DHT22;38310;52.796;6.942;2024-01-11T14:17:29;0.70;99.90
52381;DHT22;38310;52.796;6.942;2024-01-11T14:19:55;0.70;99.90
52381;DHT22;38310;52.796;6.942;2024-01-11T14:22:21;1.70;99.90
52381;DHT22;38310;52.796;6.942;2024-01-11T14:24:47;0.80;99.90
52381;DHT22;38310;52.796;6.942;2024-01-11T14:27:12;0.70;99.90
52381;DHT22;38310;52.796;6.942;2024-01-11T14:29:40;0.70;99.90
52381;DHT22;38310;52.796;6.942;2024-01-11T14:32:06;0.60;99.90
52381;DHT22;38310;52.796;6.942;2024-01-11T14:34:32;1.30;99.90
52381;DHT22;38310;52.796;6.942;2024-01-11T14:36:58;1.40;99.90
52381;DHT22;38310;52.796;6.942;2024-01-11T14:39:24;0.50;99.90
52381;DHT22;38310;52.796;6.942;2024-01-11T14:41:52;0.60;99.90
52381;DHT22;38310;52.796;6.942;2024-01-11T14:44:17;0.60;99.90
52381;DHT22;38310;52.796;6.942;2024-01-11T14:46:43;0.50;99.90
52381;DHT22;38310;52.796;6.942;2024-01-11T14:49:09;1.50;99.90
52381;DHT22;38310;52.796;6.942;2024-01-11T14:51:35;0.60;99.90
52381;DHT22;38310;52.796;6.942;2024-01-11T14:54:03;0.60;99.90
52381;DHT22;38310;52.796;6.942;2024-01-11T14:56:30;0.60;99.90
52381;DHT22;38310;52.796;6.942;2024-01-11T14:58:56;0.60;99.90
52381;DHT22;38310;52.796;6.942;2024-01-11T15:01:22;1.40;99.90
52381;DHT22;38310;52.796;6.942;2024-01-11T15:03:48;0.70;99.90
52381;DHT22;38310;52.796;6.942;2024-01-11T15:06:13;0.70;99.90
52381;DHT22;38310;52.796;6.942;2024-01-11T15:08:39;0.50;99.90
52381;DHT22;38310;52.796;6.942;2024-01-11T15:11:05;1.10;99.90
52381;DHT22;38310;52.796;6.942;2024-01-11T15:13:31;0.40;99.90
52381;DHT22;38310;52.796;6.942;2024-01-11T15:15:57;0.50;99.90
52381;DHT22;38310;52.796;6.942;2024-01-11T15:18:23;2.30;99.90
52381;DHT22;38310;52.796;6.942;2024-01-11T15:20:48;1.90;99.90
52381;DHT22;38310;52.796;6.942;2024-01-11T15:23:15;0.40;99.90
52381;DHT22;38310;52.796;6.942;2024-01-11T15:25:41;1.50;99.90
52381;DHT22;38310;52.796;6.942;2024-01-11T15:28:07;0.50;99.90
52381;DHT22;38310;52.796;6.942;2024-01-11T15:30:33;1.20;99.90
52381;DHT22;38310;52.796;6.942;2024-01-11T15:32:59;0.50;99.90
52381;DHT22;38310;52.796;6.942;2024-01-11T15:35:25;1.50;99.90
52381;DHT22;38310;52.796;6.942;2024-01-11T15:37:51;0.50;99.90